createdAt,value
2023-05-15T00:01:09.239Z,32.10
2023-05-15T00:03:37.626Z,26.70
2023-05-15T00:06:07.022Z,25.63
2023-05-15T00:08:37.015Z,28.80
2023-05-15T00:11:05.103Z,27.07
2023-05-15T00:13:34.623Z,25.70
2023-05-15T00:16:02.877Z,27.80
2023-05-15T00:18:31.185Z,24.00
2023-05-15T00:20:59.469Z,31.10
2023-05-15T00:23:27.900Z,26.57
2023-05-15T00:25:57.587Z,31.27
2023-05-15T00:28:26.508Z,31.13
2023-05-15T00:30:54.598Z,31.83
2023-05-15T00:33:22.664Z,33.70
2023-05-15T00:35:51.101Z,41.03
2023-05-15T00:38:19.200Z,41.00
2023-05-15T00:40:47.763Z,33.33
2023-05-15T00:43:19.456Z,37.67
2023-05-15T00:45:48.700Z,35.83
2023-05-15T00:48:17.733Z,34.53
2023-05-15T00:50:47.151Z,36.83
2023-05-15T00:53:17.443Z,35.97
2023-05-15T00:55:48.540Z,35.30
2023-05-15T00:58:19.674Z,40.67
2023-05-15T01:00:49.889Z,39.87
2023-05-15T01:03:18.207Z,36.67
2023-05-15T01:05:46.503Z,34.50
2023-05-15T01:08:20.457Z,42.80
2023-05-15T01:10:51.467Z,32.30
2023-05-15T01:13:21.585Z,34.07
2023-05-15T01:15:50.670Z,34.93
2023-05-15T01:18:19.180Z,35.50
2023-05-15T01:21:03.193Z,37.37
2023-05-15T01:23:46.494Z,39.63
2023-05-15T01:26:48.526Z,39.67
2023-05-15T01:29:25.566Z,40.57
2023-05-15T01:31:59.995Z,33.33
2023-05-15T01:34:35.493Z,30.07
2023-05-15T01:37:05.474Z,40.23
2023-05-15T01:39:37.117Z,35.10
2023-05-15T01:42:09.197Z,39.13
2023-05-15T01:44:44.981Z,35.93
2023-05-15T01:47:16.616Z,37.83
2023-05-15T01:49:46.903Z,35.30
2023-05-15T01:52:19.160Z,35.73
2023-05-15T01:54:49.347Z,40.77
2023-05-15T01:57:20.245Z,37.93
2023-05-15T01:59:51.370Z,37.17
2023-05-15T02:02:20.955Z,39.77
2023-05-15T02:04:50.877Z,39.63
2023-05-15T02:07:19.241Z,40.33
2023-05-15T02:09:48.398Z,38.37
2023-05-15T02:12:16.903Z,41.13
2023-05-15T02:14:46.315Z,42.73
2023-05-15T02:17:16.409Z,40.93
2023-05-15T02:19:44.558Z,43.70
2023-05-15T02:22:13.568Z,39.63
2023-05-15T02:24:41.665Z,38.40
2023-05-15T02:27:18.786Z,36.03
2023-05-15T02:30:03.112Z,33.60
2023-05-15T02:32:41.686Z,35.20
2023-05-15T02:35:19.332Z,35.67
2023-05-15T02:37:50.840Z,39.87
2023-05-15T02:40:21.420Z,36.23
2023-05-15T02:42:50.692Z,39.17
2023-05-15T02:45:18.811Z,39.97
2023-05-15T02:47:50.650Z,39.07
2023-05-15T02:50:19.823Z,34.90
2023-05-15T02:52:48.132Z,37.87
2023-05-15T02:55:16.402Z,39.50
2023-05-15T02:57:44.469Z,37.33
2023-05-15T03:00:14.594Z,35.87
2023-05-15T03:02:42.720Z,40.40
2023-05-15T03:05:12.454Z,36.07
2023-05-15T03:07:41.394Z,40.13
2023-05-15T03:10:10.196Z,39.90
2023-05-15T03:12:38.383Z,36.93
2023-05-15T03:15:25.603Z,40.23
2023-05-15T03:17:54.035Z,37.70
2023-05-15T03:20:23.658Z,41.03
2023-05-15T03:22:54.219Z,45.90
2023-05-15T03:25:27.149Z,42.20
2023-05-15T03:27:56.869Z,40.13
2023-05-15T03:30:25.135Z,39.93
2023-05-15T03:32:54.050Z,41.03
2023-05-15T03:35:23.873Z,44.67
2023-05-15T03:37:52.084Z,40.87
2023-05-15T03:40:20.415Z,41.47
2023-05-15T03:42:48.437Z,43.00
2023-05-15T03:45:16.942Z,41.37
2023-05-15T03:47:45.099Z,41.43
2023-05-15T03:50:13.814Z,41.77
2023-05-15T03:52:43.429Z,44.50
2023-05-15T03:55:11.652Z,45.17
2023-05-15T03:57:41.623Z,44.17
2023-05-15T04:00:11.167Z,44.67
2023-05-15T04:02:40.515Z,47.63
2023-05-15T04:05:09.875Z,44.83
2023-05-15T04:07:39.268Z,42.43
2023-05-15T04:10:09.798Z,41.50
2023-05-15T04:12:38.328Z,40.10
2023-05-15T04:15:17.205Z,41.93
2023-05-15T04:17:45.771Z,42.33
2023-05-15T04:20:15.045Z,38.17
2023-05-15T04:22:44.388Z,41.03
2023-05-15T04:25:15.183Z,40.50
2023-05-15T04:27:44.669Z,40.27
2023-05-15T04:30:14.161Z,35.73
2023-05-15T04:32:43.075Z,34.73
2023-05-15T04:35:13.727Z,34.70
2023-05-15T04:37:43.533Z,37.60
2023-05-15T04:40:15.318Z,33.03
2023-05-15T04:42:44.178Z,38.57
2023-05-15T04:45:13.703Z,36.60
2023-05-15T04:47:42.351Z,33.37
2023-05-15T04:50:10.953Z,35.77
2023-05-15T04:52:39.324Z,32.83
2023-05-15T04:55:08.860Z,37.97
2023-05-15T04:57:38.730Z,36.67
2023-05-15T05:00:13.185Z,35.33
2023-05-15T05:02:41.711Z,34.80
2023-05-15T05:05:10.327Z,33.97
2023-05-15T05:07:38.337Z,37.47
2023-05-15T05:10:07.740Z,42.40
2023-05-15T05:12:35.791Z,38.43
2023-05-15T05:15:06.025Z,36.43
2023-05-15T05:17:34.104Z,39.33
2023-05-15T05:20:02.284Z,41.83
2023-05-15T05:22:31.944Z,43.63
2023-05-15T05:25:00.616Z,47.57
2023-05-15T05:27:28.952Z,39.17
2023-05-15T05:29:57.595Z,37.00
2023-05-15T05:32:27.532Z,33.37
2023-05-15T05:34:56.480Z,33.03
2023-05-15T05:37:24.847Z,31.50
2023-05-15T05:39:53.051Z,40.70
2023-05-15T05:42:21.150Z,38.15
2023-05-15T05:44:49.192Z,33.40
2023-05-15T05:47:17.214Z,37.70
2023-05-15T05:49:48.245Z,35.65
2023-05-15T05:52:18.604Z,31.58
2023-05-15T05:54:48.224Z,37.60
2023-05-15T05:57:16.729Z,37.75
2023-05-15T05:59:46.092Z,33.70
2023-05-15T06:02:14.721Z,33.35
2023-05-15T06:04:42.922Z,32.92
2023-05-15T06:07:13.186Z,34.75
2023-05-15T06:09:41.644Z,32.25
2023-05-15T06:12:10.486Z,30.77
2023-05-15T06:14:38.615Z,29.10
2023-05-15T06:17:08.610Z,29.58
2023-05-15T06:19:39.756Z,28.98
2023-05-15T06:22:08.755Z,34.92
2023-05-15T06:24:38.406Z,29.88
2023-05-15T06:27:07.325Z,27.25
2023-05-15T06:29:35.821Z,32.35
2023-05-15T06:32:04.219Z,33.80
2023-05-15T06:34:32.400Z,33.45
2023-05-15T06:37:00.935Z,30.98
2023-05-15T06:39:29.284Z,35.22
2023-05-15T06:42:01.802Z,42.20
2023-05-15T06:44:31.123Z,35.90
2023-05-15T06:46:59.594Z,33.20
2023-05-15T06:49:29.139Z,33.70
2023-05-15T06:51:57.606Z,34.05
2023-05-15T06:54:25.683Z,30.35
2023-05-15T06:56:54.064Z,27.17
2023-05-15T06:59:24.800Z,30.90
2023-05-15T07:01:53.408Z,29.40
2023-05-15T07:04:21.695Z,46.17
2023-05-15T07:06:50.674Z,27.58
2023-05-15T07:09:21.299Z,27.50
2023-05-15T07:11:49.438Z,29.05
2023-05-15T07:14:17.679Z,27.10
2023-05-15T07:16:48.345Z,26.33
2023-05-15T07:19:21.303Z,26.33
2023-05-15T07:21:50.047Z,28.45
2023-05-15T07:24:40.311Z,31.13
2023-05-15T07:27:08.953Z,29.10
2023-05-15T07:29:37.351Z,28.88
2023-05-15T07:32:07.765Z,31.45
2023-05-15T07:34:36.495Z,28.92
2023-05-15T07:37:04.946Z,26.80
2023-05-15T07:39:34.108Z,26.50
2023-05-15T07:42:02.384Z,28.80
2023-05-15T07:44:30.475Z,25.13
2023-05-15T07:47:00.871Z,28.05
2023-05-15T07:49:32.979Z,27.73
2023-05-15T07:52:02.383Z,25.98
2023-05-15T07:54:32.202Z,28.15
2023-05-15T07:57:00.331Z,20.90
2023-05-15T07:59:31.342Z,22.88
2023-05-15T08:01:59.810Z,23.83
2023-05-15T08:04:28.577Z,18.58
2023-05-15T08:06:58.506Z,23.15
2023-05-15T08:09:26.782Z,22.02
2023-05-15T08:11:57.533Z,23.10
2023-05-15T08:14:26.015Z,21.40
2023-05-15T08:16:54.297Z,20.73
2023-05-15T08:19:23.988Z,19.50
2023-05-15T08:21:52.609Z,23.75
2023-05-15T08:24:22.350Z,18.45
2023-05-15T08:26:50.760Z,22.45
2023-05-15T08:29:18.936Z,19.70
2023-05-15T08:31:47.173Z,21.23
2023-05-15T08:34:15.386Z,23.40
2023-05-15T08:36:43.531Z,20.58
2023-05-15T08:39:11.737Z,22.40
2023-05-15T08:41:49.250Z,20.60
2023-05-15T08:44:17.655Z,22.52
2023-05-15T08:46:46.462Z,21.42
2023-05-15T08:49:21.569Z,20.95
2023-05-15T08:51:49.653Z,22.15
2023-05-15T08:54:17.916Z,23.23
2023-05-15T08:56:47.941Z,24.10
2023-05-15T08:59:16.497Z,21.75
2023-05-15T09:01:46.319Z,20.05
2023-05-15T09:04:14.798Z,24.02
2023-05-15T09:06:45.143Z,33.42
2023-05-15T09:09:14.331Z,24.50
2023-05-15T09:11:45.687Z,32.40
2023-05-15T09:14:15.394Z,27.55
2023-05-15T09:16:43.618Z,23.35
2023-05-15T09:19:13.802Z,22.92
2023-05-15T09:21:41.999Z,24.48
2023-05-15T09:24:21.821Z,22.65
2023-05-15T09:27:03.258Z,21.20
2023-05-15T09:29:33.993Z,22.35
2023-05-15T09:32:04.512Z,22.70
2023-05-15T09:34:34.374Z,40.10
2023-05-15T09:37:05.396Z,26.02
2023-05-15T09:39:34.020Z,25.50
2023-05-15T09:42:10.332Z,25.05
2023-05-15T09:44:43.391Z,24.95
2023-05-15T09:47:16.985Z,27.40
2023-05-15T09:49:46.984Z,30.35
2023-05-15T09:52:17.535Z,27.83
2023-05-15T09:54:49.625Z,24.45
2023-05-15T09:57:23.520Z,30.73
2023-05-15T09:59:53.632Z,26.70
2023-05-15T10:02:25.712Z,28.15
2023-05-15T10:04:57.684Z,26.83
2023-05-15T10:07:30.181Z,25.42
2023-05-15T10:09:59.016Z,30.02
2023-05-15T10:12:28.060Z,29.15
2023-05-15T10:14:58.798Z,30.42
2023-05-15T10:17:29.218Z,30.05
2023-05-15T10:20:00.260Z,31.30
2023-05-15T10:22:32.292Z,28.52
2023-05-15T10:25:04.622Z,31.25
2023-05-15T10:27:36.287Z,29.48
2023-05-15T10:30:09.049Z,30.05
2023-05-15T10:32:38.003Z,29.30
2023-05-15T10:35:07.116Z,28.17
2023-05-15T10:37:36.958Z,28.98
2023-05-15T10:40:09.674Z,23.85
2023-05-15T10:42:38.433Z,24.50
2023-05-15T10:45:10.169Z,27.10
2023-05-15T10:47:39.445Z,24.63
2023-05-15T10:50:08.838Z,28.13
2023-05-15T10:52:38.805Z,23.17
2023-05-15T10:55:11.723Z,22.98
2023-05-15T10:57:40.742Z,25.67
2023-05-15T11:00:26.414Z,27.25
2023-05-15T11:02:57.516Z,26.25
2023-05-15T11:05:26.563Z,29.33
2023-05-15T11:08:28.552Z,27.48
2023-05-15T11:10:57.392Z,25.33
2023-05-15T11:13:27.063Z,26.58
2023-05-15T11:15:57.411Z,25.27
2023-05-15T11:18:26.873Z,27.55
2023-05-15T11:21:11.286Z,25.20
2023-05-15T11:23:42.053Z,22.70
2023-05-15T11:26:11.172Z,28.10
2023-05-15T11:28:44.980Z,25.00
2023-05-15T11:31:15.630Z,22.15
2023-05-15T11:33:43.828Z,24.85
2023-05-15T11:36:15.926Z,23.08
2023-05-15T11:38:44.790Z,23.42
2023-05-15T11:41:21.987Z,28.02
2023-05-15T11:43:51.572Z,24.23
2023-05-15T11:46:22.943Z,23.75
2023-05-15T11:48:51.979Z,26.40
2023-05-15T11:51:22.564Z,25.48
2023-05-15T11:53:51.778Z,27.40
2023-05-15T11:56:21.004Z,22.15
2023-05-15T11:58:53.067Z,26.00
2023-05-15T12:01:22.842Z,26.63
2023-05-15T12:03:51.594Z,27.30
2023-05-15T12:06:20.156Z,26.13
2023-05-15T12:08:54.211Z,23.02
2023-05-15T12:11:24.520Z,22.52
2023-05-15T12:13:53.192Z,25.10
2023-05-15T12:16:27.383Z,24.08
2023-05-15T12:18:57.850Z,27.95
2023-05-15T12:21:28.276Z,22.85
2023-05-15T12:24:07.050Z,32.17
2023-05-15T12:26:37.164Z,29.23
2023-05-15T12:29:05.932Z,33.05
2023-05-15T12:31:37.308Z,28.40
2023-05-15T12:34:05.977Z,27.42
2023-05-15T12:36:34.234Z,34.92
2023-05-15T12:39:07.953Z,32.00
2023-05-15T12:41:38.504Z,31.40
2023-05-15T12:44:07.240Z,26.63
2023-05-15T12:46:36.748Z,28.23
2023-05-15T12:49:04.829Z,27.40
2023-05-15T12:51:32.916Z,28.45
2023-05-15T12:54:01.330Z,26.65
2023-05-15T12:56:31.197Z,29.98
2023-05-15T12:58:59.539Z,30.40
2023-05-15T13:01:27.843Z,24.27
2023-05-15T13:03:58.728Z,28.90
2023-05-15T13:06:38.397Z,26.70
2023-05-15T13:09:14.332Z,25.65
2023-05-15T13:11:44.964Z,30.67
2023-05-15T13:14:17.703Z,30.13
2023-05-15T13:16:47.559Z,27.63
2023-05-15T13:19:17.543Z,26.55
2023-05-15T13:21:46.318Z,32.80
2023-05-15T13:24:14.574Z,31.00
2023-05-15T13:26:42.849Z,26.60
2023-05-15T13:29:11.105Z,28.58
2023-05-15T13:31:39.509Z,27.55
2023-05-15T13:34:07.683Z,24.17
2023-05-15T13:36:37.919Z,31.23
2023-05-15T13:39:06.592Z,32.03
2023-05-15T13:41:34.741Z,31.55
2023-05-15T13:44:02.935Z,27.23
2023-05-15T13:46:31.535Z,29.75
2023-05-15T13:49:00.354Z,30.63
2023-05-15T13:51:28.736Z,27.67
2023-05-15T13:53:58.133Z,30.63
2023-05-15T13:56:26.391Z,36.80
2023-05-15T13:58:55.042Z,32.40
2023-05-15T14:01:23.213Z,31.75
2023-05-15T14:03:51.505Z,32.17
2023-05-15T14:06:19.678Z,32.03
2023-05-15T14:08:47.888Z,36.70
2023-05-15T14:11:17.559Z,28.38
2023-05-15T14:13:45.795Z,30.17
2023-05-15T14:16:14.182Z,30.10
2023-05-15T14:18:42.351Z,28.80
2023-05-15T14:21:11.429Z,31.98
2023-05-15T14:23:39.554Z,33.95
2023-05-15T14:26:07.980Z,35.15
2023-05-15T14:28:37.842Z,33.17
2023-05-15T14:31:06.002Z,33.83
2023-05-15T14:33:34.242Z,33.67
2023-05-15T14:36:04.589Z,32.35
2023-05-15T14:38:33.022Z,35.95
2023-05-15T14:41:01.358Z,29.98
2023-05-15T14:43:30.184Z,30.77
2023-05-15T14:45:59.742Z,35.20
2023-05-15T14:48:30.036Z,32.45
2023-05-15T14:50:58.241Z,36.22
2023-05-15T14:53:26.285Z,34.70
2023-05-15T14:55:56.251Z,34.05
2023-05-15T14:58:24.372Z,30.92
2023-05-15T15:00:52.748Z,33.30
2023-05-15T15:03:22.595Z,33.88
2023-05-15T15:05:51.995Z,30.30
2023-05-15T15:08:20.734Z,32.10
2023-05-15T15:10:48.722Z,31.13
2023-05-15T15:13:17.350Z,33.85
2023-05-15T15:15:45.383Z,33.92
2023-05-15T15:18:13.475Z,31.92
2023-05-15T15:20:44.570Z,33.58
2023-05-15T15:23:13.644Z,33.00
2023-05-15T15:25:42.226Z,34.90
2023-05-15T15:28:10.607Z,40.75
2023-05-15T15:30:39.622Z,34.10
2023-05-15T15:33:07.821Z,36.78
2023-05-15T15:35:36.146Z,37.35
2023-05-15T15:38:05.694Z,37.40
2023-05-15T15:40:33.688Z,38.63
2023-05-15T15:43:01.870Z,32.75
2023-05-15T15:45:30.265Z,31.83
2023-05-15T15:47:58.994Z,38.90
2023-05-15T15:50:27.268Z,34.72
2023-05-15T15:52:55.852Z,33.08
2023-05-15T15:55:26.175Z,39.63
2023-05-15T15:57:54.659Z,38.53
2023-05-15T16:00:23.185Z,32.75
2023-05-15T16:02:51.580Z,35.58
2023-05-15T16:05:19.932Z,38.22
2023-05-15T16:07:48.992Z,36.10
2023-05-15T16:10:17.474Z,37.22
2023-05-15T16:12:47.488Z,38.30
2023-05-15T16:15:23.070Z,37.67
2023-05-15T16:17:55.025Z,36.97
2023-05-15T16:20:24.683Z,45.20
2023-05-15T16:22:53.746Z,36.95
2023-05-15T16:25:22.423Z,38.00
2023-05-15T16:27:52.062Z,34.20
2023-05-15T16:30:20.345Z,33.55
2023-05-15T16:32:48.903Z,36.15
2023-05-15T16:35:17.330Z,37.33
2023-05-15T16:37:46.950Z,36.45
2023-05-15T16:40:16.091Z,33.22
2023-05-15T16:42:44.781Z,32.05
2023-05-15T16:45:15.075Z,34.22
2023-05-15T16:47:43.153Z,36.75
2023-05-15T16:50:11.873Z,33.67
2023-05-15T16:52:45.566Z,35.53
2023-05-15T16:55:15.529Z,39.40
2023-05-15T16:57:45.336Z,37.42
2023-05-15T17:00:17.140Z,36.40
2023-05-15T17:02:45.912Z,36.20
2023-05-15T17:05:15.404Z,39.08
2023-05-15T17:07:45.124Z,35.55
2023-05-15T17:10:14.335Z,36.55
2023-05-15T17:12:42.542Z,40.63
2023-05-15T17:15:11.318Z,37.40
2023-05-15T17:17:40.970Z,42.15
2023-05-15T17:20:10.669Z,40.53
2023-05-15T17:22:38.981Z,38.55
2023-05-15T17:25:08.896Z,39.38
2023-05-15T17:27:39.915Z,38.72
2023-05-15T17:30:09.639Z,39.40
2023-05-15T17:32:39.123Z,35.90
2023-05-15T17:35:11.518Z,39.10
2023-05-15T17:37:40.132Z,37.80
2023-05-15T17:40:10.228Z,44.45
2023-05-15T17:42:39.350Z,38.42
2023-05-15T17:45:08.943Z,39.08
2023-05-15T17:47:37.304Z,42.95
2023-05-15T17:50:09.394Z,41.42
2023-05-15T17:52:38.862Z,35.58
2023-05-15T17:55:08.507Z,40.97
2023-05-15T17:57:36.673Z,37.65
2023-05-15T18:00:07.150Z,46.75
2023-05-15T18:02:35.523Z,47.22
2023-05-15T18:05:04.042Z,41.28
2023-05-15T18:07:33.866Z,46.03
2023-05-15T18:10:02.332Z,46.78
2023-05-15T18:12:33.233Z,43.65
2023-05-15T18:15:01.441Z,58.80
2023-05-15T18:17:30.301Z,48.72
2023-05-15T18:19:58.735Z,68.47
2023-05-15T18:22:28.048Z,64.78
2023-05-15T18:24:59.096Z,49.55
2023-05-15T18:27:33.009Z,47.17
2023-05-15T18:30:05.152Z,49.15
2023-05-15T18:32:34.606Z,41.08
2023-05-15T18:35:04.040Z,44.33
2023-05-15T18:37:32.266Z,44.55
2023-05-15T18:40:02.067Z,39.08
2023-05-15T18:42:30.621Z,42.13
2023-05-15T18:45:04.889Z,41.25
2023-05-15T18:47:33.653Z,42.25
2023-05-15T18:50:01.992Z,43.97
2023-05-15T18:52:30.092Z,42.67
2023-05-15T18:54:58.568Z,45.25
2023-05-15T18:57:28.410Z,43.30
2023-05-15T18:59:56.735Z,43.53
2023-05-15T19:02:26.268Z,42.90
2023-05-15T19:04:54.864Z,41.33
2023-05-15T19:07:23.079Z,44.85
2023-05-15T19:09:51.969Z,46.17
2023-05-15T19:12:20.761Z,45.35
2023-05-15T19:14:50.836Z,43.08
2023-05-15T19:17:20.414Z,45.40
2023-05-15T19:19:48.912Z,50.97
2023-05-15T19:22:17.790Z,46.22
2023-05-15T19:24:47.003Z,51.95
2023-05-15T19:27:15.650Z,49.97
2023-05-15T19:29:45.447Z,46.03
2023-05-15T19:32:15.387Z,44.47
2023-05-15T19:34:43.786Z,44.72
2023-05-15T19:37:12.555Z,44.35
2023-05-15T19:39:41.654Z,45.80
2023-05-15T19:42:10.341Z,45.28
2023-05-15T19:44:38.996Z,48.25
2023-05-15T19:47:09.028Z,46.20
2023-05-15T19:49:38.715Z,46.70
2023-05-15T19:52:07.455Z,49.38
2023-05-15T19:54:35.784Z,47.72
2023-05-15T19:57:04.082Z,42.38
2023-05-15T19:59:32.380Z,50.50
2023-05-15T20:02:06.215Z,50.20
2023-05-15T20:04:35.348Z,57.80
2023-05-15T20:07:05.306Z,49.08
2023-05-15T20:09:33.991Z,56.37
2023-05-15T20:12:03.528Z,53.63
2023-05-15T20:14:34.252Z,48.08
2023-05-15T20:17:03.713Z,55.00
2023-05-15T20:19:32.000Z,58.13
2023-05-15T20:22:00.285Z,65.00
2023-05-15T20:24:30.365Z,59.87
2023-05-15T20:26:58.646Z,61.67
2023-05-15T20:29:26.931Z,57.60
2023-05-15T20:31:55.596Z,61.27
2023-05-15T20:34:24.237Z,59.22
2023-05-15T20:36:52.800Z,59.20
2023-05-15T20:39:21.439Z,58.70
2023-05-15T20:41:51.090Z,54.50
2023-05-15T20:44:19.201Z,49.95
2023-05-15T20:46:47.408Z,51.83
2023-05-15T20:49:15.745Z,44.78
2023-05-15T20:51:44.682Z,43.78
2023-05-15T20:54:12.960Z,50.70
2023-05-15T20:56:41.112Z,45.97
2023-05-15T20:59:11.082Z,55.20
2023-05-15T21:01:39.367Z,49.78
2023-05-15T21:04:08.079Z,54.55
2023-05-15T21:06:37.106Z,53.05
2023-05-15T21:09:05.458Z,52.13
2023-05-15T21:11:33.597Z,49.00
2023-05-15T21:14:01.932Z,58.55
2023-05-15T21:16:31.488Z,58.47
2023-05-15T21:19:01.374Z,56.72
2023-05-15T21:21:30.133Z,47.67
2023-05-15T21:24:02.162Z,52.55
2023-05-15T21:26:30.285Z,50.00
2023-05-15T21:28:59.205Z,57.00
2023-05-15T21:31:27.988Z,48.17
2023-05-15T21:33:57.911Z,58.30
2023-05-15T21:36:26.055Z,56.60
2023-05-15T21:38:54.204Z,50.07
2023-05-15T21:41:22.344Z,48.60
2023-05-15T21:43:50.451Z,54.50
2023-05-15T21:46:18.629Z,51.85
2023-05-15T21:48:46.802Z,54.97
2023-05-15T21:51:16.204Z,58.83
2023-05-15T21:53:44.338Z,52.95
2023-05-15T21:56:12.509Z,48.07
2023-05-15T21:58:40.621Z,51.20
2023-05-15T22:01:08.795Z,53.87
2023-05-15T22:03:36.925Z,51.92
2023-05-15T22:06:05.520Z,54.77
2023-05-15T22:08:35.137Z,54.50
2023-05-15T22:11:03.946Z,54.97
2023-05-15T22:13:32.088Z,56.53
2023-05-15T22:16:00.354Z,54.57
2023-05-15T22:18:29.125Z,54.53
2023-05-15T22:20:57.594Z,48.10
2023-05-15T22:23:26.287Z,51.80
2023-05-15T22:25:55.875Z,52.07
2023-05-15T22:28:24.188Z,47.73
2023-05-15T22:30:52.315Z,52.08
2023-05-15T22:33:24.587Z,50.00
2023-05-15T22:35:53.305Z,50.20
2023-05-15T22:38:21.480Z,51.30
2023-05-15T22:40:51.564Z,47.67
2023-05-15T22:43:21.573Z,54.60
2023-05-15T22:45:49.800Z,52.20
2023-05-15T22:48:17.974Z,49.73
2023-05-15T22:50:46.138Z,50.13
2023-05-15T22:53:14.306Z,51.75
2023-05-15T22:55:42.576Z,53.27
2023-05-15T22:58:10.731Z,54.17
2023-05-15T23:00:40.205Z,56.50
2023-05-15T23:03:08.495Z,58.58
2023-05-15T23:05:36.692Z,52.60
2023-05-15T23:08:04.930Z,54.15
2023-05-15T23:10:33.034Z,54.90
2023-05-15T23:13:01.143Z,54.17
2023-05-15T23:15:29.358Z,52.03
2023-05-15T23:17:58.828Z,54.03
2023-05-15T23:20:27.267Z,50.43
2023-05-15T23:22:56.109Z,64.40
2023-05-15T23:25:24.357Z,57.13
2023-05-15T23:27:53.114Z,58.47
2023-05-15T23:30:21.536Z,54.27
2023-05-15T23:32:50.410Z,52.60
2023-05-15T23:35:20.420Z,54.33
2023-05-15T23:37:48.477Z,51.63
2023-05-15T23:40:16.937Z,55.93
2023-05-15T23:42:45.039Z,55.10
2023-05-15T23:45:13.859Z,53.13
2023-05-15T23:47:42.510Z,57.55
2023-05-15T23:50:10.860Z,49.87
2023-05-15T23:52:40.419Z,59.77
2023-05-15T23:55:09.523Z,53.10
2023-05-15T23:57:37.686Z,55.50
